sensor_id;sensor_type;location;lat;lon;timestamp;P1;durP1;ratioP1;P2;durP2;ratioP2
61360;SDS011;47232;47.506;18.936;2022-10-16T00:01:46;0.20;;;0.20;;
61360;SDS011;47232;47.506;18.936;2022-10-16T00:04:11;0.20;;;0.20;;
61360;SDS011;47232;47.506;18.936;2022-10-16T00:06:37;0.20;;;0.20;;
61360;SDS011;47232;47.506;18.936;2022-10-16T00:09:04;0.20;;;0.20;;
61360;SDS011;47232;47.506;18.936;2022-10-16T00:11:31;0.20;;;0.20;;
61360;SDS011;47232;47.506;18.936;2022-10-16T00:14:05;0.20;;;0.20;;
61360;SDS011;47232;47.506;18.936;2022-10-16T00:16:33;0.20;;;0.20;;
61360;SDS011;47232;47.506;18.936;2022-10-16T00:18:59;0.20;;;0.20;;
61360;SDS011;47232;47.506;18.936;2022-10-16T00:21:26;0.20;;;0.20;;
61360;SDS011;47232;47.506;18.936;2022-10-16T00:23:54;0.20;;;0.20;;
61360;SDS011;47232;47.506;18.936;2022-10-16T00:26:24;0.20;;;0.20;;
61360;SDS011;47232;47.506;18.936;2022-10-16T00:28:51;0.10;;;0.10;;
61360;SDS011;47232;47.506;18.936;2022-10-16T00:31:18;0.10;;;0.10;;
61360;SDS011;47232;47.506;18.936;2022-10-16T00:33:45;0.20;;;0.20;;
61360;SDS011;47232;47.506;18.936;2022-10-16T00:36:12;0.20;;;0.20;;
61360;SDS011;47232;47.506;18.936;2022-10-16T00:38:39;0.20;;;0.20;;
61360;SDS011;47232;47.506;18.936;2022-10-16T00:41:06;0.20;;;0.20;;
61360;SDS011;47232;47.506;18.936;2022-10-16T00:43:37;0.10;;;0.10;;
61360;SDS011;47232;47.506;18.936;2022-10-16T00:46:05;0.10;;;0.10;;
61360;SDS011;47232;47.506;18.936;2022-10-16T00:48:36;0.20;;;0.20;;
61360;SDS011;47232;47.506;18.936;2022-10-16T00:51:01;0.20;;;0.20;;
61360;SDS011;47232;47.506;18.936;2022-10-16T00:53:27;0.20;;;0.20;;
61360;SDS011;47232;47.506;18.936;2022-10-16T00:55:53;0.10;;;0.10;;
61360;SDS011;47232;47.506;18.936;2022-10-16T00:58:18;0.20;;;0.20;;
61360;SDS011;47232;47.506;18.936;2022-10-16T01:00:45;0.20;;;0.20;;
61360;SDS011;47232;47.506;18.936;2022-10-16T01:11:38;0.20;;;0.20;;
61360;SDS011;47232;47.506;18.936;2022-10-16T01:14:19;0.20;;;0.20;;
61360;SDS011;47232;47.506;18.936;2022-10-16T01:22:33;0.10;;;0.10;;
61360;SDS011;47232;47.506;18.936;2022-10-16T01:25:17;0.20;;;0.20;;
61360;SDS011;47232;47.506;18.936;2022-10-16T01:27:50;0.10;;;0.10;;
61360;SDS011;47232;47.506;18.936;2022-10-16T01:30:18;0.30;;;0.30;;
61360;SDS011;47232;47.506;18.936;2022-10-16T01:32:52;0.10;;;0.10;;
61360;SDS011;47232;47.506;18.936;2022-10-16T01:35:58;0.10;;;0.10;;
61360;SDS011;47232;47.506;18.936;2022-10-16T01:38:34;0.20;;;0.20;;
61360;SDS011;47232;47.506;18.936;2022-10-16T01:43:48;0.30;;;0.30;;
61360;SDS011;47232;47.506;18.936;2022-10-16T01:46:18;0.10;;;0.10;;
61360;SDS011;47232;47.506;18.936;2022-10-16T01:48:48;0.10;;;0.10;;
61360;SDS011;47232;47.506;18.936;2022-10-16T01:51:16;0.10;;;0.10;;
61360;SDS011;47232;47.506;18.936;2022-10-16T01:53:46;0.20;;;0.20;;
61360;SDS011;47232;47.506;18.936;2022-10-16T01:56:16;0.10;;;0.10;;
61360;SDS011;47232;47.506;18.936;2022-10-16T01:58:47;0.10;;;0.10;;
61360;SDS011;47232;47.506;18.936;2022-10-16T02:01:16;0.20;;;0.20;;
61360;SDS011;47232;47.506;18.936;2022-10-16T02:03:45;0.20;;;0.20;;
61360;SDS011;47232;47.506;18.936;2022-10-16T02:06:13;0.20;;;0.20;;
61360;SDS011;47232;47.506;18.936;2022-10-16T02:08:39;0.20;;;0.20;;
61360;SDS011;47232;47.506;18.936;2022-10-16T02:11:09;0.10;;;0.10;;
61360;SDS011;47232;47.506;18.936;2022-10-16T02:16:10;0.30;;;0.30;;
61360;SDS011;47232;47.506;18.936;2022-10-16T02:18:37;0.10;;;0.10;;
61360;SDS011;47232;47.506;18.936;2022-10-16T02:24:04;0.20;;;0.20;;
61360;SDS011;47232;47.506;18.936;2022-10-16T02:26:42;0.10;;;0.10;;
61360;SDS011;47232;47.506;18.936;2022-10-16T02:29:14;0.10;;;0.10;;
61360;SDS011;47232;47.506;18.936;2022-10-16T02:31:46;0.10;;;0.10;;
61360;SDS011;47232;47.506;18.936;2022-10-16T02:34:16;0.20;;;0.20;;
61360;SDS011;47232;47.506;18.936;2022-10-16T02:36:43;0.20;;;0.20;;
61360;SDS011;47232;47.506;18.936;2022-10-16T02:39:10;0.10;;;0.10;;
61360;SDS011;47232;47.506;18.936;2022-10-16T02:41:36;0.20;;;0.20;;
61360;SDS011;47232;47.506;18.936;2022-10-16T02:44:02;0.20;;;0.20;;
61360;SDS011;47232;47.506;18.936;2022-10-16T02:46:28;0.10;;;0.10;;
61360;SDS011;47232;47.506;18.936;2022-10-16T02:48:53;0.20;;;0.20;;
61360;SDS011;47232;47.506;18.936;2022-10-16T02:51:18;0.20;;;0.20;;
61360;SDS011;47232;47.506;18.936;2022-10-16T02:53:44;0.20;;;0.20;;
61360;SDS011;47232;47.506;18.936;2022-10-16T02:56:09;0.30;;;0.30;;
61360;SDS011;47232;47.506;18.936;2022-10-16T02:58:35;0.20;;;0.20;;
61360;SDS011;47232;47.506;18.936;2022-10-16T03:01:00;0.20;;;0.20;;
61360;SDS011;47232;47.506;18.936;2022-10-16T03:03:26;0.10;;;0.10;;
61360;SDS011;47232;47.506;18.936;2022-10-16T03:05:51;0.10;;;0.10;;
61360;SDS011;47232;47.506;18.936;2022-10-16T03:08:16;0.10;;;0.10;;
61360;SDS011;47232;47.506;18.936;2022-10-16T03:10:42;0.10;;;0.10;;
61360;SDS011;47232;47.506;18.936;2022-10-16T03:13:07;0.10;;;0.10;;
61360;SDS011;47232;47.506;18.936;2022-10-16T03:15:33;0.10;;;0.10;;
61360;SDS011;47232;47.506;18.936;2022-10-16T03:17:59;0.10;;;0.10;;
61360;SDS011;47232;47.506;18.936;2022-10-16T03:20:24;0.10;;;0.10;;
61360;SDS011;47232;47.506;18.936;2022-10-16T03:22:50;0.20;;;0.20;;
61360;SDS011;47232;47.506;18.936;2022-10-16T03:25:15;0.20;;;0.20;;
61360;SDS011;47232;47.506;18.936;2022-10-16T03:27:41;0.10;;;0.10;;
61360;SDS011;47232;47.506;18.936;2022-10-16T03:30:06;0.10;;;0.10;;
61360;SDS011;47232;47.506;18.936;2022-10-16T03:32:32;0.10;;;0.10;;
61360;SDS011;47232;47.506;18.936;2022-10-16T03:34:58;0.10;;;0.10;;
61360;SDS011;47232;47.506;18.936;2022-10-16T03:37:23;0.20;;;0.20;;
61360;SDS011;47232;47.506;18.936;2022-10-16T03:39:49;0.10;;;0.10;;
61360;SDS011;47232;47.506;18.936;2022-10-16T03:42:14;0.10;;;0.10;;
61360;SDS011;47232;47.506;18.936;2022-10-16T03:44:39;0.10;;;0.10;;
61360;SDS011;47232;47.506;18.936;2022-10-16T03:47:05;0.20;;;0.20;;
61360;SDS011;47232;47.506;18.936;2022-10-16T03:49:30;0.10;;;0.10;;
61360;SDS011;47232;47.506;18.936;2022-10-16T03:51:56;0.10;;;0.10;;
61360;SDS011;47232;47.506;18.936;2022-10-16T03:54:21;0.10;;;0.10;;
61360;SDS011;47232;47.506;18.936;2022-10-16T03:56:47;0.10;;;0.10;;
61360;SDS011;47232;47.506;18.936;2022-10-16T03:59:13;0.10;;;0.10;;
61360;SDS011;47232;47.506;18.936;2022-10-16T04:01:38;0.10;;;0.10;;
61360;SDS011;47232;47.506;18.936;2022-10-16T04:04:04;0.20;;;0.20;;
61360;SDS011;47232;47.506;18.936;2022-10-16T04:06:29;0.10;;;0.10;;
61360;SDS011;47232;47.506;18.936;2022-10-16T04:08:54;0.00;;;0.00;;
61360;SDS011;47232;47.506;18.936;2022-10-16T04:11:21;0.10;;;0.10;;
61360;SDS011;47232;47.506;18.936;2022-10-16T04:13:46;0.20;;;0.20;;
61360;SDS011;47232;47.506;18.936;2022-10-16T04:16:12;0.10;;;0.10;;
61360;SDS011;47232;47.506;18.936;2022-10-16T04:18:37;0.10;;;0.10;;
61360;SDS011;47232;47.506;18.936;2022-10-16T04:21:03;0.10;;;0.10;;
61360;SDS011;47232;47.506;18.936;2022-10-16T04:23:29;0.10;;;0.10;;
61360;SDS011;47232;47.506;18.936;2022-10-16T04:25:55;0.10;;;0.10;;
61360;SDS011;47232;47.506;18.936;2022-10-16T04:28:20;0.10;;;0.10;;
61360;SDS011;47232;47.506;18.936;2022-10-16T04:30:45;0.10;;;0.10;;
61360;SDS011;47232;47.506;18.936;2022-10-16T04:33:11;0.10;;;0.10;;
61360;SDS011;47232;47.506;18.936;2022-10-16T04:35:37;0.10;;;0.10;;
61360;SDS011;47232;47.506;18.936;2022-10-16T04:38:03;0.10;;;0.10;;
61360;SDS011;47232;47.506;18.936;2022-10-16T04:40:29;0.20;;;0.20;;
61360;SDS011;47232;47.506;18.936;2022-10-16T04:42:58;0.10;;;0.10;;
61360;SDS011;47232;47.506;18.936;2022-10-16T04:45:24;0.10;;;0.10;;
61360;SDS011;47232;47.506;18.936;2022-10-16T04:47:49;0.10;;;0.10;;
61360;SDS011;47232;47.506;18.936;2022-10-16T04:50:15;0.10;;;0.10;;
61360;SDS011;47232;47.506;18.936;2022-10-16T04:52:40;0.10;;;0.10;;
61360;SDS011;47232;47.506;18.936;2022-10-16T04:55:06;0.10;;;0.10;;
61360;SDS011;47232;47.506;18.936;2022-10-16T04:57:32;0.10;;;0.10;;
61360;SDS011;47232;47.506;18.936;2022-10-16T04:59:58;0.10;;;0.10;;
61360;SDS011;47232;47.506;18.936;2022-10-16T05:02:25;0.10;;;0.10;;
61360;SDS011;47232;47.506;18.936;2022-10-16T05:04:51;0.20;;;0.20;;
61360;SDS011;47232;47.506;18.936;2022-10-16T05:07:16;0.10;;;0.10;;
61360;SDS011;47232;47.506;18.936;2022-10-16T05:09:42;0.10;;;0.10;;
61360;SDS011;47232;47.506;18.936;2022-10-16T05:12:07;0.10;;;0.10;;
61360;SDS011;47232;47.506;18.936;2022-10-16T05:14:33;0.10;;;0.10;;
61360;SDS011;47232;47.506;18.936;2022-10-16T05:16:59;0.10;;;0.10;;
61360;SDS011;47232;47.506;18.936;2022-10-16T05:19:25;0.10;;;0.10;;
61360;SDS011;47232;47.506;18.936;2022-10-16T05:21:50;0.10;;;0.10;;
61360;SDS011;47232;47.506;18.936;2022-10-16T05:24:16;0.10;;;0.10;;
61360;SDS011;47232;47.506;18.936;2022-10-16T05:26:41;0.10;;;0.10;;
61360;SDS011;47232;47.506;18.936;2022-10-16T05:29:07;0.10;;;0.10;;
61360;SDS011;47232;47.506;18.936;2022-10-16T05:31:32;0.10;;;0.10;;
61360;SDS011;47232;47.506;18.936;2022-10-16T05:33:58;0.10;;;0.10;;
61360;SDS011;47232;47.506;18.936;2022-10-16T05:36:25;0.10;;;0.10;;
61360;SDS011;47232;47.506;18.936;2022-10-16T05:38:51;0.10;;;0.10;;
61360;SDS011;47232;47.506;18.936;2022-10-16T05:41:16;0.10;;;0.10;;
61360;SDS011;47232;47.506;18.936;2022-10-16T05:43:46;0.10;;;0.10;;
61360;SDS011;47232;47.506;18.936;2022-10-16T05:46:12;0.10;;;0.10;;
61360;SDS011;47232;47.506;18.936;2022-10-16T05:48:37;0.10;;;0.10;;
61360;SDS011;47232;47.506;18.936;2022-10-16T05:51:04;0.10;;;0.10;;
61360;SDS011;47232;47.506;18.936;2022-10-16T05:53:32;0.10;;;0.10;;
61360;SDS011;47232;47.506;18.936;2022-10-16T05:55:59;0.10;;;0.10;;
61360;SDS011;47232;47.506;18.936;2022-10-16T05:58:28;0.10;;;0.10;;
61360;SDS011;47232;47.506;18.936;2022-10-16T06:00:55;0.10;;;0.10;;
61360;SDS011;47232;47.506;18.936;2022-10-16T06:03:25;0.10;;;0.10;;
61360;SDS011;47232;47.506;18.936;2022-10-16T06:05:51;0.10;;;0.10;;
61360;SDS011;47232;47.506;18.936;2022-10-16T06:08:17;0.20;;;0.20;;
61360;SDS011;47232;47.506;18.936;2022-10-16T06:10:44;0.10;;;0.10;;
61360;SDS011;47232;47.506;18.936;2022-10-16T06:13:11;0.10;;;0.10;;
61360;SDS011;47232;47.506;18.936;2022-10-16T06:15:38;0.10;;;0.10;;
61360;SDS011;47232;47.506;18.936;2022-10-16T06:18:06;0.10;;;0.10;;
61360;SDS011;47232;47.506;18.936;2022-10-16T06:20:32;0.10;;;0.10;;
61360;SDS011;47232;47.506;18.936;2022-10-16T06:22:57;0.10;;;0.10;;
61360;SDS011;47232;47.506;18.936;2022-10-16T06:25:23;0.10;;;0.10;;
61360;SDS011;47232;47.506;18.936;2022-10-16T06:27:48;0.10;;;0.10;;
61360;SDS011;47232;47.506;18.936;2022-10-16T06:30:13;0.10;;;0.10;;
61360;SDS011;47232;47.506;18.936;2022-10-16T06:32:39;0.10;;;0.10;;
61360;SDS011;47232;47.506;18.936;2022-10-16T06:35:04;0.10;;;0.10;;
61360;SDS011;47232;47.506;18.936;2022-10-16T06:37:30;0.10;;;0.10;;
61360;SDS011;47232;47.506;18.936;2022-10-16T06:39:55;0.20;;;0.20;;
61360;SDS011;47232;47.506;18.936;2022-10-16T06:42:21;0.10;;;0.10;;
61360;SDS011;47232;47.506;18.936;2022-10-16T06:44:46;0.10;;;0.10;;
61360;SDS011;47232;47.506;18.936;2022-10-16T06:47:12;0.20;;;0.20;;
61360;SDS011;47232;47.506;18.936;2022-10-16T06:49:37;0.10;;;0.10;;
61360;SDS011;47232;47.506;18.936;2022-10-16T06:52:02;0.10;;;0.10;;
61360;SDS011;47232;47.506;18.936;2022-10-16T06:54:28;0.10;;;0.10;;
61360;SDS011;47232;47.506;18.936;2022-10-16T06:56:53;0.20;;;0.20;;
61360;SDS011;47232;47.506;18.936;2022-10-16T06:59:22;0.20;;;0.20;;
61360;SDS011;47232;47.506;18.936;2022-10-16T07:01:48;0.10;;;0.10;;
61360;SDS011;47232;47.506;18.936;2022-10-16T07:04:13;0.10;;;0.10;;
61360;SDS011;47232;47.506;18.936;2022-10-16T07:06:39;0.20;;;0.20;;
61360;SDS011;47232;47.506;18.936;2022-10-16T07:09:07;0.10;;;0.10;;
61360;SDS011;47232;47.506;18.936;2022-10-16T07:11:35;0.10;;;0.10;;
61360;SDS011;47232;47.506;18.936;2022-10-16T07:14:02;0.10;;;0.10;;
61360;SDS011;47232;47.506;18.936;2022-10-16T07:16:29;0.10;;;0.10;;
61360;SDS011;47232;47.506;18.936;2022-10-16T07:19:00;0.10;;;0.10;;
61360;SDS011;47232;47.506;18.936;2022-10-16T07:21:30;0.20;;;0.20;;
61360;SDS011;47232;47.506;18.936;2022-10-16T07:24:01;0.20;;;0.20;;
61360;SDS011;47232;47.506;18.936;2022-10-16T07:26:28;0.20;;;0.20;;
61360;SDS011;47232;47.506;18.936;2022-10-16T07:28:55;0.20;;;0.20;;
61360;SDS011;47232;47.506;18.936;2022-10-16T07:31:21;0.20;;;0.20;;
61360;SDS011;47232;47.506;18.936;2022-10-16T07:33:47;0.20;;;0.20;;
61360;SDS011;47232;47.506;18.936;2022-10-16T07:36:18;0.10;;;0.10;;
61360;SDS011;47232;47.506;18.936;2022-10-16T07:38:45;0.10;;;0.10;;
61360;SDS011;47232;47.506;18.936;2022-10-16T07:46:18;0.10;;;0.10;;
61360;SDS011;47232;47.506;18.936;2022-10-16T07:48:45;0.20;;;0.20;;
61360;SDS011;47232;47.506;18.936;2022-10-16T07:51:13;0.20;;;0.20;;
61360;SDS011;47232;47.506;18.936;2022-10-16T07:53:40;0.20;;;0.20;;
61360;SDS011;47232;47.506;18.936;2022-10-16T07:56:06;0.30;;;0.30;;
61360;SDS011;47232;47.506;18.936;2022-10-16T07:58:33;0.10;;;0.10;;
61360;SDS011;47232;47.506;18.936;2022-10-16T08:01:02;0.20;;;0.20;;
61360;SDS011;47232;47.506;18.936;2022-10-16T08:03:30;0.20;;;0.20;;
61360;SDS011;47232;47.506;18.936;2022-10-16T08:05:56;0.20;;;0.20;;
61360;SDS011;47232;47.506;18.936;2022-10-16T08:08:22;0.20;;;0.20;;
61360;SDS011;47232;47.506;18.936;2022-10-16T08:10:48;0.20;;;0.20;;
61360;SDS011;47232;47.506;18.936;2022-10-16T08:13:13;0.10;;;0.10;;
61360;SDS011;47232;47.506;18.936;2022-10-16T08:15:40;0.20;;;0.20;;
61360;SDS011;47232;47.506;18.936;2022-10-16T08:18:10;0.20;;;0.20;;
61360;SDS011;47232;47.506;18.936;2022-10-16T08:20:36;0.20;;;0.20;;
61360;SDS011;47232;47.506;18.936;2022-10-16T08:23:02;0.20;;;0.20;;
61360;SDS011;47232;47.506;18.936;2022-10-16T08:25:28;0.20;;;0.20;;
61360;SDS011;47232;47.506;18.936;2022-10-16T08:27:54;0.20;;;0.20;;
61360;SDS011;47232;47.506;18.936;2022-10-16T08:30:20;0.20;;;0.20;;
61360;SDS011;47232;47.506;18.936;2022-10-16T08:32:47;0.30;;;0.30;;
61360;SDS011;47232;47.506;18.936;2022-10-16T08:35:13;0.30;;;0.30;;
61360;SDS011;47232;47.506;18.936;2022-10-16T08:37:40;0.20;;;0.20;;
61360;SDS011;47232;47.506;18.936;2022-10-16T08:40:06;0.20;;;0.20;;
61360;SDS011;47232;47.506;18.936;2022-10-16T08:48:43;0.30;;;0.30;;
61360;SDS011;47232;47.506;18.936;2022-10-16T08:51:10;0.30;;;0.30;;
61360;SDS011;47232;47.506;18.936;2022-10-16T08:53:44;0.20;;;0.20;;
61360;SDS011;47232;47.506;18.936;2022-10-16T08:56:23;0.30;;;0.30;;
61360;SDS011;47232;47.506;18.936;2022-10-16T08:58:50;0.30;;;0.30;;
61360;SDS011;47232;47.506;18.936;2022-10-16T09:01:19;0.30;;;0.30;;
61360;SDS011;47232;47.506;18.936;2022-10-16T09:06:47;0.20;;;0.20;;
61360;SDS011;47232;47.506;18.936;2022-10-16T09:20:26;0.40;;;0.40;;
61360;SDS011;47232;47.506;18.936;2022-10-16T09:25:29;0.30;;;0.30;;
61360;SDS011;47232;47.506;18.936;2022-10-16T09:27:56;0.20;;;0.20;;
61360;SDS011;47232;47.506;18.936;2022-10-16T09:30:29;0.30;;;0.30;;
61360;SDS011;47232;47.506;18.936;2022-10-16T09:32:54;0.30;;;0.30;;
61360;SDS011;47232;47.506;18.936;2022-10-16T09:35:27;0.30;;;0.30;;
61360;SDS011;47232;47.506;18.936;2022-10-16T09:37:56;0.30;;;0.30;;
61360;SDS011;47232;47.506;18.936;2022-10-16T09:42:50;0.40;;;0.40;;
61360;SDS011;47232;47.506;18.936;2022-10-16T09:45:23;0.30;;;0.30;;
61360;SDS011;47232;47.506;18.936;2022-10-16T09:47:49;0.40;;;0.40;;
61360;SDS011;47232;47.506;18.936;2022-10-16T09:50:22;0.30;;;0.30;;
61360;SDS011;47232;47.506;18.936;2022-10-16T09:53:02;0.30;;;0.30;;
61360;SDS011;47232;47.506;18.936;2022-10-16T09:55:48;0.40;;;0.40;;
61360;SDS011;47232;47.506;18.936;2022-10-16T09:58:15;0.30;;;0.30;;
61360;SDS011;47232;47.506;18.936;2022-10-16T10:00:41;0.30;;;0.30;;
61360;SDS011;47232;47.506;18.936;2022-10-16T10:03:15;0.40;;;0.40;;
61360;SDS011;47232;47.506;18.936;2022-10-16T10:05:58;0.30;;;0.30;;
61360;SDS011;47232;47.506;18.936;2022-10-16T10:08:24;0.30;;;0.30;;
61360;SDS011;47232;47.506;18.936;2022-10-16T10:10:49;0.40;;;0.40;;
61360;SDS011;47232;47.506;18.936;2022-10-16T10:13:19;0.30;;;0.30;;
61360;SDS011;47232;47.506;18.936;2022-10-16T10:15:46;0.40;;;0.40;;
61360;SDS011;47232;47.506;18.936;2022-10-16T10:18:16;0.40;;;0.40;;
61360;SDS011;47232;47.506;18.936;2022-10-16T10:20:45;0.30;;;0.30;;
61360;SDS011;47232;47.506;18.936;2022-10-16T10:23:29;0.30;;;0.30;;
61360;SDS011;47232;47.506;18.936;2022-10-16T10:31:27;0.50;;;0.50;;
61360;SDS011;47232;47.506;18.936;2022-10-16T10:37:00;0.50;;;0.50;;
61360;SDS011;47232;47.506;18.936;2022-10-16T10:39:40;0.40;;;0.40;;
61360;SDS011;47232;47.506;18.936;2022-10-16T10:42:27;0.40;;;0.40;;
61360;SDS011;47232;47.506;18.936;2022-10-16T10:47:52;0.40;;;0.40;;
61360;SDS011;47232;47.506;18.936;2022-10-16T10:55:48;0.50;;;0.50;;
61360;SDS011;47232;47.506;18.936;2022-10-16T11:07:05;0.50;;;0.50;;
61360;SDS011;47232;47.506;18.936;2022-10-16T11:09:49;0.40;;;0.40;;
61360;SDS011;47232;47.506;18.936;2022-10-16T11:12:20;0.50;;;0.50;;
61360;SDS011;47232;47.506;18.936;2022-10-16T11:17:42;0.40;;;0.40;;
61360;SDS011;47232;47.506;18.936;2022-10-16T11:20:13;0.60;;;0.60;;
61360;SDS011;47232;47.506;18.936;2022-10-16T11:22:55;0.50;;;0.50;;
61360;SDS011;47232;47.506;18.936;2022-10-16T11:25:29;0.40;;;0.40;;
61360;SDS011;47232;47.506;18.936;2022-10-16T11:30:33;0.50;;;0.50;;
61360;SDS011;47232;47.506;18.936;2022-10-16T11:41:21;0.50;;;0.50;;
61360;SDS011;47232;47.506;18.936;2022-10-16T11:43:52;0.50;;;0.50;;
61360;SDS011;47232;47.506;18.936;2022-10-16T11:47:45;0.40;;;0.40;;
61360;SDS011;47232;47.506;18.936;2022-10-16T11:49:41;0.50;;;0.50;;
61360;SDS011;47232;47.506;18.936;2022-10-16T11:54:57;0.60;;;0.60;;
61360;SDS011;47232;47.506;18.936;2022-10-16T11:57:33;0.50;;;0.50;;
61360;SDS011;47232;47.506;18.936;2022-10-16T12:00:06;0.60;;;0.60;;
61360;SDS011;47232;47.506;18.936;2022-10-16T12:02:43;0.50;;;0.50;;
61360;SDS011;47232;47.506;18.936;2022-10-16T12:08:15;0.60;;;0.60;;
61360;SDS011;47232;47.506;18.936;2022-10-16T12:10:43;0.60;;;0.60;;
61360;SDS011;47232;47.506;18.936;2022-10-16T12:16:04;0.50;;;0.50;;
61360;SDS011;47232;47.506;18.936;2022-10-16T12:18:29;0.50;;;0.50;;
61360;SDS011;47232;47.506;18.936;2022-10-16T12:20:56;0.50;;;0.50;;
61360;SDS011;47232;47.506;18.936;2022-10-16T12:23:30;0.50;;;0.50;;
61360;SDS011;47232;47.506;18.936;2022-10-16T12:25:58;0.60;;;0.60;;
61360;SDS011;47232;47.506;18.936;2022-10-16T12:28:31;0.50;;;0.50;;
61360;SDS011;47232;47.506;18.936;2022-10-16T12:30:59;0.60;;;0.60;;
61360;SDS011;47232;47.506;18.936;2022-10-16T12:33:28;0.60;;;0.60;;
61360;SDS011;47232;47.506;18.936;2022-10-16T12:35:56;0.60;;;0.60;;
61360;SDS011;47232;47.506;18.936;2022-10-16T12:38:27;0.50;;;0.50;;
61360;SDS011;47232;47.506;18.936;2022-10-16T12:40:59;0.50;;;0.50;;
61360;SDS011;47232;47.506;18.936;2022-10-16T12:48:34;0.50;;;0.50;;
61360;SDS011;47232;47.506;18.936;2022-10-16T13:01:36;0.70;;;0.70;;
61360;SDS011;47232;47.506;18.936;2022-10-16T13:10:00;0.60;;;0.60;;
61360;SDS011;47232;47.506;18.936;2022-10-16T13:12:45;0.50;;;0.50;;
61360;SDS011;47232;47.506;18.936;2022-10-16T13:15:29;0.60;;;0.60;;
61360;SDS011;47232;47.506;18.936;2022-10-16T13:23:32;0.60;;;0.60;;
61360;SDS011;47232;47.506;18.936;2022-10-16T13:26:13;0.70;;;0.70;;
61360;SDS011;47232;47.506;18.936;2022-10-16T13:28:48;0.70;;;0.70;;
61360;SDS011;47232;47.506;18.936;2022-10-16T13:31:15;0.70;;;0.70;;
61360;SDS011;47232;47.506;18.936;2022-10-16T13:33:49;0.70;;;0.70;;
61360;SDS011;47232;47.506;18.936;2022-10-16T13:36:24;0.70;;;0.70;;
61360;SDS011;47232;47.506;18.936;2022-10-16T13:41:46;0.70;;;0.70;;
61360;SDS011;47232;47.506;18.936;2022-10-16T13:44:47;0.80;;;0.80;;
61360;SDS011;47232;47.506;18.936;2022-10-16T13:47:19;0.70;;;0.70;;
61360;SDS011;47232;47.506;18.936;2022-10-16T13:49:46;0.80;;;0.80;;
61360;SDS011;47232;47.506;18.936;2022-10-16T13:52:23;0.80;;;0.80;;
61360;SDS011;47232;47.506;18.936;2022-10-16T13:54:49;0.80;;;0.80;;
61360;SDS011;47232;47.506;18.936;2022-10-16T13:57:14;0.80;;;0.80;;
61360;SDS011;47232;47.506;18.936;2022-10-16T13:59:40;0.70;;;0.70;;
61360;SDS011;47232;47.506;18.936;2022-10-16T14:04:53;0.80;;;0.80;;
61360;SDS011;47232;47.506;18.936;2022-10-16T14:07:24;0.80;;;0.80;;
61360;SDS011;47232;47.506;18.936;2022-10-16T14:09:52;0.90;;;0.90;;
61360;SDS011;47232;47.506;18.936;2022-10-16T14:12:19;0.90;;;0.90;;
61360;SDS011;47232;47.506;18.936;2022-10-16T14:14:47;0.90;;;0.90;;
61360;SDS011;47232;47.506;18.936;2022-10-16T14:19:45;0.80;;;0.80;;
61360;SDS011;47232;47.506;18.936;2022-10-16T14:22:22;0.90;;;0.90;;
61360;SDS011;47232;47.506;18.936;2022-10-16T14:24:58;0.90;;;0.90;;
61360;SDS011;47232;47.506;18.936;2022-10-16T14:32:32;1.00;;;1.00;;
61360;SDS011;47232;47.506;18.936;2022-10-16T14:34:58;1.00;;;1.00;;
61360;SDS011;47232;47.506;18.936;2022-10-16T14:37:27;1.00;;;1.00;;
61360;SDS011;47232;47.506;18.936;2022-10-16T14:39:54;1.10;;;1.10;;
61360;SDS011;47232;47.506;18.936;2022-10-16T14:42:21;1.10;;;1.10;;
61360;SDS011;47232;47.506;18.936;2022-10-16T14:44:51;1.10;;;1.10;;
61360;SDS011;47232;47.506;18.936;2022-10-16T14:47:19;1.10;;;1.10;;
61360;SDS011;47232;47.506;18.936;2022-10-16T14:49:49;1.20;;;1.20;;
61360;SDS011;47232;47.506;18.936;2022-10-16T14:52:15;1.10;;;1.10;;
61360;SDS011;47232;47.506;18.936;2022-10-16T14:54:41;1.10;;;1.10;;
61360;SDS011;47232;47.506;18.936;2022-10-16T14:57:41;1.10;;;1.10;;
61360;SDS011;47232;47.506;18.936;2022-10-16T15:00:00;1.10;;;1.10;;
61360;SDS011;47232;47.506;18.936;2022-10-16T15:02:30;1.10;;;1.10;;
61360;SDS011;47232;47.506;18.936;2022-10-16T15:04:58;1.00;;;1.00;;
61360;SDS011;47232;47.506;18.936;2022-10-16T15:07:35;1.20;;;1.20;;
61360;SDS011;47232;47.506;18.936;2022-10-16T15:10:00;1.20;;;1.20;;
61360;SDS011;47232;47.506;18.936;2022-10-16T15:12:26;1.00;;;1.00;;
61360;SDS011;47232;47.506;18.936;2022-10-16T15:14:51;1.10;;;1.10;;
61360;SDS011;47232;47.506;18.936;2022-10-16T15:17:17;1.10;;;1.10;;
61360;SDS011;47232;47.506;18.936;2022-10-16T15:19:42;1.20;;;1.20;;
61360;SDS011;47232;47.506;18.936;2022-10-16T15:22:09;1.00;;;1.00;;
61360;SDS011;47232;47.506;18.936;2022-10-16T15:24:36;1.10;;;1.10;;
61360;SDS011;47232;47.506;18.936;2022-10-16T15:27:01;1.10;;;1.10;;
61360;SDS011;47232;47.506;18.936;2022-10-16T15:29:26;1.10;;;1.10;;
61360;SDS011;47232;47.506;18.936;2022-10-16T15:31:52;1.00;;;1.00;;
61360;SDS011;47232;47.506;18.936;2022-10-16T15:34:17;0.90;;;0.90;;
61360;SDS011;47232;47.506;18.936;2022-10-16T15:36:44;0.90;;;0.90;;
61360;SDS011;47232;47.506;18.936;2022-10-16T15:39:12;0.70;;;0.70;;
61360;SDS011;47232;47.506;18.936;2022-10-16T15:41:39;0.80;;;0.80;;
61360;SDS011;47232;47.506;18.936;2022-10-16T15:44:05;0.70;;;0.70;;
61360;SDS011;47232;47.506;18.936;2022-10-16T15:46:30;0.70;;;0.70;;
61360;SDS011;47232;47.506;18.936;2022-10-16T15:48:58;0.60;;;0.60;;
61360;SDS011;47232;47.506;18.936;2022-10-16T15:51:24;0.70;;;0.70;;
61360;SDS011;47232;47.506;18.936;2022-10-16T15:53:57;0.50;;;0.50;;
61360;SDS011;47232;47.506;18.936;2022-10-16T15:56:24;0.50;;;0.50;;
61360;SDS011;47232;47.506;18.936;2022-10-16T15:58:53;0.40;;;0.40;;
61360;SDS011;47232;47.506;18.936;2022-10-16T16:01:19;0.50;;;0.50;;
61360;SDS011;47232;47.506;18.936;2022-10-16T16:03:46;0.50;;;0.50;;
61360;SDS011;47232;47.506;18.936;2022-10-16T16:06:12;0.40;;;0.40;;
61360;SDS011;47232;47.506;18.936;2022-10-16T16:08:39;0.40;;;0.40;;
61360;SDS011;47232;47.506;18.936;2022-10-16T16:11:08;0.40;;;0.40;;
61360;SDS011;47232;47.506;18.936;2022-10-16T16:13:36;0.50;;;0.50;;
61360;SDS011;47232;47.506;18.936;2022-10-16T16:16:08;0.40;;;0.40;;
61360;SDS011;47232;47.506;18.936;2022-10-16T16:18:36;0.30;;;0.30;;
61360;SDS011;47232;47.506;18.936;2022-10-16T16:21:02;0.40;;;0.40;;
61360;SDS011;47232;47.506;18.936;2022-10-16T16:23:29;0.40;;;0.40;;
61360;SDS011;47232;47.506;18.936;2022-10-16T16:28:31;0.30;;;0.30;;
61360;SDS011;47232;47.506;18.936;2022-10-16T16:30:56;0.30;;;0.30;;
61360;SDS011;47232;47.506;18.936;2022-10-16T16:33:21;0.20;;;0.20;;
61360;SDS011;47232;47.506;18.936;2022-10-16T16:35:47;0.30;;;0.30;;
61360;SDS011;47232;47.506;18.936;2022-10-16T16:38:12;0.30;;;0.30;;
61360;SDS011;47232;47.506;18.936;2022-10-16T16:40:38;0.30;;;0.30;;
61360;SDS011;47232;47.506;18.936;2022-10-16T16:43:03;0.20;;;0.20;;
61360;SDS011;47232;47.506;18.936;2022-10-16T16:45:29;0.20;;;0.20;;
61360;SDS011;47232;47.506;18.936;2022-10-16T16:47:54;0.30;;;0.30;;
61360;SDS011;47232;47.506;18.936;2022-10-16T16:50:20;0.10;;;0.10;;
61360;SDS011;47232;47.506;18.936;2022-10-16T16:52:45;0.20;;;0.20;;
61360;SDS011;47232;47.506;18.936;2022-10-16T16:55:10;0.30;;;0.30;;
61360;SDS011;47232;47.506;18.936;2022-10-16T16:57:36;0.30;;;0.30;;
61360;SDS011;47232;47.506;18.936;2022-10-16T17:00:01;0.30;;;0.30;;
61360;SDS011;47232;47.506;18.936;2022-10-16T17:02:28;0.20;;;0.20;;
61360;SDS011;47232;47.506;18.936;2022-10-16T17:04:53;0.20;;;0.20;;